sensor_id;sensor_type;location;lat;lon;timestamp;P1;durP1;ratioP1;P2;durP2;ratioP2
69310;SDS011;56430;48.154;16.458;2024-02-16T00:00:24;15.98;;;7.15;;
69310;SDS011;56430;48.154;16.458;2024-02-16T00:02:51;16.40;;;7.60;;
69310;SDS011;56430;48.154;16.458;2024-02-16T00:05:19;16.92;;;7.18;;
69310;SDS011;56430;48.154;16.458;2024-02-16T00:07:46;14.87;;;7.50;;
69310;SDS011;56430;48.154;16.458;2024-02-16T00:10:13;15.88;;;7.38;;
69310;SDS011;56430;48.154;16.458;2024-02-16T00:12:40;14.13;;;6.78;;
69310;SDS011;56430;48.154;16.458;2024-02-16T00:15:09;15.70;;;7.68;;
69310;SDS011;56430;48.154;16.458;2024-02-16T00:17:37;16.48;;;7.60;;
69310;SDS011;56430;48.154;16.458;2024-02-16T00:20:04;16.73;;;7.13;;
69310;SDS011;56430;48.154;16.458;2024-02-16T00:22:33;18.58;;;7.65;;
69310;SDS011;56430;48.154;16.458;2024-02-16T00:25:01;16.23;;;6.97;;
69310;SDS011;56430;48.154;16.458;2024-02-16T00:27:29;15.75;;;7.55;;
69310;SDS011;56430;48.154;16.458;2024-02-16T00:29:56;14.75;;;6.78;;
69310;SDS011;56430;48.154;16.458;2024-02-16T00:32:24;18.17;;;8.03;;
69310;SDS011;56430;48.154;16.458;2024-02-16T00:34:57;16.65;;;6.85;;
69310;SDS011;56430;48.154;16.458;2024-02-16T00:37:24;16.63;;;7.45;;
69310;SDS011;56430;48.154;16.458;2024-02-16T00:39:51;16.10;;;7.18;;
69310;SDS011;56430;48.154;16.458;2024-02-16T00:42:20;18.00;;;8.27;;
69310;SDS011;56430;48.154;16.458;2024-02-16T00:44:48;17.30;;;8.03;;
69310;SDS011;56430;48.154;16.458;2024-02-16T00:47:15;15.20;;;7.43;;
69310;SDS011;56430;48.154;16.458;2024-02-16T00:49:44;14.13;;;7.47;;
69310;SDS011;56430;48.154;16.458;2024-02-16T00:52:11;17.42;;;7.72;;
69310;SDS011;56430;48.154;16.458;2024-02-16T00:54:38;17.42;;;7.82;;
69310;SDS011;56430;48.154;16.458;2024-02-16T00:57:05;16.70;;;7.20;;
69310;SDS011;56430;48.154;16.458;2024-02-16T00:59:32;16.50;;;7.60;;
69310;SDS011;56430;48.154;16.458;2024-02-16T01:02:00;18.40;;;7.75;;
69310;SDS011;56430;48.154;16.458;2024-02-16T01:04:27;16.88;;;7.45;;
69310;SDS011;56430;48.154;16.458;2024-02-16T01:06:56;17.77;;;7.78;;
69310;SDS011;56430;48.154;16.458;2024-02-16T01:09:24;16.33;;;7.40;;
69310;SDS011;56430;48.154;16.458;2024-02-16T01:11:52;14.85;;;6.93;;
69310;SDS011;56430;48.154;16.458;2024-02-16T01:14:19;17.33;;;6.90;;
69310;SDS011;56430;48.154;16.458;2024-02-16T01:16:46;17.63;;;7.47;;
69310;SDS011;56430;48.154;16.458;2024-02-16T01:19:14;15.80;;;7.72;;
69310;SDS011;56430;48.154;16.458;2024-02-16T01:21:41;16.27;;;7.37;;
69310;SDS011;56430;48.154;16.458;2024-02-16T01:24:09;16.17;;;7.32;;
69310;SDS011;56430;48.154;16.458;2024-02-16T01:26:39;17.83;;;7.43;;
69310;SDS011;56430;48.154;16.458;2024-02-16T01:29:06;16.10;;;6.82;;
69310;SDS011;56430;48.154;16.458;2024-02-16T01:31:33;15.52;;;7.18;;
69310;SDS011;56430;48.154;16.458;2024-02-16T01:34:02;14.40;;;7.07;;
69310;SDS011;56430;48.154;16.458;2024-02-16T01:36:29;16.85;;;7.10;;
69310;SDS011;56430;48.154;16.458;2024-02-16T01:38:56;14.88;;;6.68;;
69310;SDS011;56430;48.154;16.458;2024-02-16T01:41:25;14.52;;;6.68;;
69310;SDS011;56430;48.154;16.458;2024-02-16T01:43:52;18.67;;;7.50;;
69310;SDS011;56430;48.154;16.458;2024-02-16T01:46:20;15.00;;;6.70;;
69310;SDS011;56430;48.154;16.458;2024-02-16T01:48:49;15.48;;;6.55;;
69310;SDS011;56430;48.154;16.458;2024-02-16T01:51:17;15.25;;;6.82;;
69310;SDS011;56430;48.154;16.458;2024-02-16T01:53:44;17.30;;;6.78;;
69310;SDS011;56430;48.154;16.458;2024-02-16T01:56:13;14.57;;;6.57;;
69310;SDS011;56430;48.154;16.458;2024-02-16T01:58:42;14.90;;;6.30;;
69310;SDS011;56430;48.154;16.458;2024-02-16T02:01:09;14.77;;;6.05;;
69310;SDS011;56430;48.154;16.458;2024-02-16T02:03:36;15.00;;;6.85;;
69310;SDS011;56430;48.154;16.458;2024-02-16T02:06:03;13.38;;;6.45;;
69310;SDS011;56430;48.154;16.458;2024-02-16T02:08:31;15.90;;;7.15;;
69310;SDS011;56430;48.154;16.458;2024-02-16T02:10:58;13.80;;;6.00;;
69310;SDS011;56430;48.154;16.458;2024-02-16T02:13:25;14.57;;;6.40;;
69310;SDS011;56430;48.154;16.458;2024-02-16T02:15:54;14.98;;;6.35;;
69310;SDS011;56430;48.154;16.458;2024-02-16T02:18:21;11.43;;;5.55;;
69310;SDS011;56430;48.154;16.458;2024-02-16T02:20:48;15.50;;;6.90;;
69310;SDS011;56430;48.154;16.458;2024-02-16T02:23:23;13.37;;;6.23;;
69310;SDS011;56430;48.154;16.458;2024-02-16T02:25:50;14.40;;;6.72;;
69310;SDS011;56430;48.154;16.458;2024-02-16T02:28:17;12.57;;;6.00;;
69310;SDS011;56430;48.154;16.458;2024-02-16T02:30:45;15.98;;;6.43;;
69310;SDS011;56430;48.154;16.458;2024-02-16T02:33:12;13.35;;;5.43;;
69310;SDS011;56430;48.154;16.458;2024-02-16T02:35:39;12.47;;;5.90;;
69310;SDS011;56430;48.154;16.458;2024-02-16T02:38:06;13.82;;;5.88;;
69310;SDS011;56430;48.154;16.458;2024-02-16T02:40:35;13.50;;;5.90;;
69310;SDS011;56430;48.154;16.458;2024-02-16T02:43:03;15.52;;;6.20;;
69310;SDS011;56430;48.154;16.458;2024-02-16T02:45:31;14.55;;;5.88;;
69310;SDS011;56430;48.154;16.458;2024-02-16T02:47:58;13.03;;;6.60;;
69310;SDS011;56430;48.154;16.458;2024-02-16T02:50:26;14.73;;;6.18;;
69310;SDS011;56430;48.154;16.458;2024-02-16T02:52:53;14.70;;;6.40;;
69310;SDS011;56430;48.154;16.458;2024-02-16T02:55:23;15.85;;;6.35;;
69310;SDS011;56430;48.154;16.458;2024-02-16T02:57:51;13.77;;;5.97;;
69310;SDS011;56430;48.154;16.458;2024-02-16T03:00:19;16.60;;;6.40;;
69310;SDS011;56430;48.154;16.458;2024-02-16T03:02:46;16.20;;;6.00;;
69310;SDS011;56430;48.154;16.458;2024-02-16T03:05:14;16.63;;;5.35;;
69310;SDS011;56430;48.154;16.458;2024-02-16T03:07:41;13.45;;;5.95;;
69310;SDS011;56430;48.154;16.458;2024-02-16T03:10:08;14.05;;;6.13;;
69310;SDS011;56430;48.154;16.458;2024-02-16T03:12:36;15.07;;;5.83;;
69310;SDS011;56430;48.154;16.458;2024-02-16T03:15:05;12.93;;;5.85;;
69310;SDS011;56430;48.154;16.458;2024-02-16T03:17:33;15.73;;;5.93;;
69310;SDS011;56430;48.154;16.458;2024-02-16T03:20:00;12.75;;;5.25;;
69310;SDS011;56430;48.154;16.458;2024-02-16T03:22:28;13.65;;;5.63;;
69310;SDS011;56430;48.154;16.458;2024-02-16T03:24:56;12.70;;;5.70;;
69310;SDS011;56430;48.154;16.458;2024-02-16T03:27:23;12.02;;;5.72;;
69310;SDS011;56430;48.154;16.458;2024-02-16T03:29:50;16.00;;;6.47;;
69310;SDS011;56430;48.154;16.458;2024-02-16T03:32:20;14.00;;;6.07;;
69310;SDS011;56430;48.154;16.458;2024-02-16T03:34:47;12.52;;;5.30;;
69310;SDS011;56430;48.154;16.458;2024-02-16T03:37:14;12.30;;;5.70;;
69310;SDS011;56430;48.154;16.458;2024-02-16T03:39:42;17.77;;;5.95;;
69310;SDS011;56430;48.154;16.458;2024-02-16T03:42:09;12.50;;;5.05;;
69310;SDS011;56430;48.154;16.458;2024-02-16T03:44:36;12.10;;;5.72;;
69310;SDS011;56430;48.154;16.458;2024-02-16T03:47:06;14.95;;;6.45;;
69310;SDS011;56430;48.154;16.458;2024-02-16T03:49:38;14.13;;;5.60;;
69310;SDS011;56430;48.154;16.458;2024-02-16T03:52:06;12.95;;;5.63;;
69310;SDS011;56430;48.154;16.458;2024-02-16T03:54:33;14.45;;;5.97;;
69310;SDS011;56430;48.154;16.458;2024-02-16T03:57:00;14.27;;;6.13;;
69310;SDS011;56430;48.154;16.458;2024-02-16T03:59:29;14.57;;;6.28;;
69310;SDS011;56430;48.154;16.458;2024-02-16T04:01:56;13.77;;;6.27;;
69310;SDS011;56430;48.154;16.458;2024-02-16T04:04:23;13.13;;;6.28;;
69310;SDS011;56430;48.154;16.458;2024-02-16T04:06:53;16.80;;;5.88;;
69310;SDS011;56430;48.154;16.458;2024-02-16T04:09:21;13.05;;;6.07;;
69310;SDS011;56430;48.154;16.458;2024-02-16T04:11:48;15.35;;;5.95;;
69310;SDS011;56430;48.154;16.458;2024-02-16T04:14:15;11.33;;;5.20;;
69310;SDS011;56430;48.154;16.458;2024-02-16T04:16:43;13.52;;;6.22;;
69310;SDS011;56430;48.154;16.458;2024-02-16T04:19:10;13.70;;;6.30;;
69310;SDS011;56430;48.154;16.458;2024-02-16T04:21:37;14.23;;;6.07;;
69310;SDS011;56430;48.154;16.458;2024-02-16T04:24:06;14.93;;;6.60;;
69310;SDS011;56430;48.154;16.458;2024-02-16T04:26:34;13.67;;;6.57;;
69310;SDS011;56430;48.154;16.458;2024-02-16T04:29:01;14.13;;;6.75;;
69310;SDS011;56430;48.154;16.458;2024-02-16T04:31:30;16.42;;;7.72;;
69310;SDS011;56430;48.154;16.458;2024-02-16T04:33:57;13.82;;;6.38;;
69310;SDS011;56430;48.154;16.458;2024-02-16T04:36:25;16.05;;;6.53;;
69310;SDS011;56430;48.154;16.458;2024-02-16T04:38:52;13.17;;;6.13;;
69310;SDS011;56430;48.154;16.458;2024-02-16T04:41:21;13.75;;;6.10;;
69310;SDS011;56430;48.154;16.458;2024-02-16T04:43:48;13.65;;;6.50;;
69310;SDS011;56430;48.154;16.458;2024-02-16T04:46:15;15.88;;;7.32;;
69310;SDS011;56430;48.154;16.458;2024-02-16T04:48:42;17.77;;;7.50;;
69310;SDS011;56430;48.154;16.458;2024-02-16T04:51:11;21.03;;;8.60;;
69310;SDS011;56430;48.154;16.458;2024-02-16T04:53:38;17.25;;;6.45;;
69310;SDS011;56430;48.154;16.458;2024-02-16T04:56:05;18.30;;;6.90;;
69310;SDS011;56430;48.154;16.458;2024-02-16T04:58:34;16.25;;;7.28;;
69310;SDS011;56430;48.154;16.458;2024-02-16T05:01:02;14.30;;;6.60;;
69310;SDS011;56430;48.154;16.458;2024-02-16T05:03:32;15.20;;;6.07;;
69310;SDS011;56430;48.154;16.458;2024-02-16T05:05:59;13.20;;;5.70;;
69310;SDS011;56430;48.154;16.458;2024-02-16T05:08:27;14.13;;;6.03;;
69310;SDS011;56430;48.154;16.458;2024-02-16T05:10:54;14.35;;;6.13;;
69310;SDS011;56430;48.154;16.458;2024-02-16T05:13:21;12.55;;;5.90;;
69310;SDS011;56430;48.154;16.458;2024-02-16T05:15:49;10.77;;;5.47;;
69310;SDS011;56430;48.154;16.458;2024-02-16T05:18:16;13.80;;;6.03;;
69310;SDS011;56430;48.154;16.458;2024-02-16T05:20:44;15.13;;;6.25;;
69310;SDS011;56430;48.154;16.458;2024-02-16T05:23:12;14.50;;;6.40;;
69310;SDS011;56430;48.154;16.458;2024-02-16T05:25:39;13.15;;;5.72;;
69310;SDS011;56430;48.154;16.458;2024-02-16T05:28:06;17.00;;;6.33;;
69310;SDS011;56430;48.154;16.458;2024-02-16T05:30:34;14.18;;;6.22;;
69310;SDS011;56430;48.154;16.458;2024-02-16T05:33:02;14.38;;;5.88;;
69310;SDS011;56430;48.154;16.458;2024-02-16T05:35:29;13.95;;;6.40;;
69310;SDS011;56430;48.154;16.458;2024-02-16T05:37:59;14.80;;;6.07;;
69310;SDS011;56430;48.154;16.458;2024-02-16T05:40:32;17.90;;;6.40;;
69310;SDS011;56430;48.154;16.458;2024-02-16T05:43:10;14.30;;;6.22;;
69310;SDS011;56430;48.154;16.458;2024-02-16T05:45:38;14.10;;;5.60;;
69310;SDS011;56430;48.154;16.458;2024-02-16T05:48:08;14.98;;;6.03;;
69310;SDS011;56430;48.154;16.458;2024-02-16T05:50:36;13.75;;;6.60;;
69310;SDS011;56430;48.154;16.458;2024-02-16T05:53:03;17.97;;;6.50;;
69310;SDS011;56430;48.154;16.458;2024-02-16T05:55:30;14.57;;;6.28;;
69310;SDS011;56430;48.154;16.458;2024-02-16T05:57:58;19.70;;;6.90;;
69310;SDS011;56430;48.154;16.458;2024-02-16T06:00:25;15.02;;;6.10;;
69310;SDS011;56430;48.154;16.458;2024-02-16T06:02:53;14.82;;;6.85;;
69310;SDS011;56430;48.154;16.458;2024-02-16T06:05:21;16.93;;;5.93;;
69310;SDS011;56430;48.154;16.458;2024-02-16T06:07:48;12.45;;;5.55;;
69310;SDS011;56430;48.154;16.458;2024-02-16T06:10:15;15.32;;;6.22;;
69310;SDS011;56430;48.154;16.458;2024-02-16T06:12:43;14.27;;;5.72;;
69310;SDS011;56430;48.154;16.458;2024-02-16T06:15:10;14.23;;;5.82;;
69310;SDS011;56430;48.154;16.458;2024-02-16T06:17:38;14.57;;;6.00;;
69310;SDS011;56430;48.154;16.458;2024-02-16T06:20:06;14.13;;;5.72;;
69310;SDS011;56430;48.154;16.458;2024-02-16T06:22:36;12.45;;;5.60;;
69310;SDS011;56430;48.154;16.458;2024-02-16T06:25:03;14.23;;;6.05;;
69310;SDS011;56430;48.154;16.458;2024-02-16T06:27:31;12.23;;;6.00;;
69310;SDS011;56430;48.154;16.458;2024-02-16T06:29:58;11.77;;;4.70;;
69310;SDS011;56430;48.154;16.458;2024-02-16T06:32:25;11.93;;;5.68;;
69310;SDS011;56430;48.154;16.458;2024-02-16T06:34:54;14.52;;;5.60;;
69310;SDS011;56430;48.154;16.458;2024-02-16T06:37:21;14.63;;;6.55;;
69310;SDS011;56430;48.154;16.458;2024-02-16T06:39:49;14.05;;;6.90;;
69310;SDS011;56430;48.154;16.458;2024-02-16T06:42:16;14.73;;;5.87;;
69310;SDS011;56430;48.154;16.458;2024-02-16T06:44:44;12.27;;;5.35;;
69310;SDS011;56430;48.154;16.458;2024-02-16T06:47:11;11.68;;;5.38;;
69310;SDS011;56430;48.154;16.458;2024-02-16T06:49:38;12.82;;;5.45;;
69310;SDS011;56430;48.154;16.458;2024-02-16T06:52:05;12.60;;;4.93;;
69310;SDS011;56430;48.154;16.458;2024-02-16T06:54:34;17.17;;;5.70;;
69310;SDS011;56430;48.154;16.458;2024-02-16T06:57:03;13.93;;;5.60;;
69310;SDS011;56430;48.154;16.458;2024-02-16T06:59:31;14.95;;;5.63;;
69310;SDS011;56430;48.154;16.458;2024-02-16T07:01:58;13.48;;;5.60;;
69310;SDS011;56430;48.154;16.458;2024-02-16T07:04:25;13.13;;;5.78;;
69310;SDS011;56430;48.154;16.458;2024-02-16T07:06:52;16.97;;;5.63;;
69310;SDS011;56430;48.154;16.458;2024-02-16T07:09:19;12.82;;;5.85;;
69310;SDS011;56430;48.154;16.458;2024-02-16T07:11:47;14.05;;;5.45;;
69310;SDS011;56430;48.154;16.458;2024-02-16T07:14:17;11.57;;;5.55;;
69310;SDS011;56430;48.154;16.458;2024-02-16T07:16:44;13.23;;;6.05;;
69310;SDS011;56430;48.154;16.458;2024-02-16T07:19:12;13.30;;;5.17;;
69310;SDS011;56430;48.154;16.458;2024-02-16T07:21:39;12.88;;;5.18;;
69310;SDS011;56430;48.154;16.458;2024-02-16T07:24:06;13.20;;;5.78;;
69310;SDS011;56430;48.154;16.458;2024-02-16T07:26:34;11.32;;;5.32;;
69310;SDS011;56430;48.154;16.458;2024-02-16T07:29:01;12.40;;;5.05;;
69310;SDS011;56430;48.154;16.458;2024-02-16T07:31:33;13.13;;;5.17;;
69310;SDS011;56430;48.154;16.458;2024-02-16T07:34:00;11.05;;;5.07;;
69310;SDS011;56430;48.154;16.458;2024-02-16T07:36:28;11.88;;;5.13;;
69310;SDS011;56430;48.154;16.458;2024-02-16T07:38:56;10.75;;;4.97;;
69310;SDS011;56430;48.154;16.458;2024-02-16T07:41:23;9.93;;;5.10;;
69310;SDS011;56430;48.154;16.458;2024-02-16T07:43:50;11.10;;;5.30;;
69310;SDS011;56430;48.154;16.458;2024-02-16T07:46:17;12.75;;;4.95;;
69310;SDS011;56430;48.154;16.458;2024-02-16T07:48:46;11.45;;;5.45;;
69310;SDS011;56430;48.154;16.458;2024-02-16T07:51:13;12.43;;;5.43;;
69310;SDS011;56430;48.154;16.458;2024-02-16T07:53:40;9.35;;;5.03;;
69310;SDS011;56430;48.154;16.458;2024-02-16T07:56:10;8.40;;;4.73;;
69310;SDS011;56430;48.154;16.458;2024-02-16T07:58:37;8.50;;;4.95;;
69310;SDS011;56430;48.154;16.458;2024-02-16T08:01:04;8.30;;;4.78;;
69310;SDS011;56430;48.154;16.458;2024-02-16T08:03:31;8.55;;;4.75;;
69310;SDS011;56430;48.154;16.458;2024-02-16T08:06:00;7.80;;;4.45;;
69310;SDS011;56430;48.154;16.458;2024-02-16T08:08:27;8.03;;;4.70;;
69310;SDS011;56430;48.154;16.458;2024-02-16T08:10:55;7.88;;;4.47;;
69310;SDS011;56430;48.154;16.458;2024-02-16T08:13:22;8.38;;;4.32;;
69310;SDS011;56430;48.154;16.458;2024-02-16T08:15:48;9.02;;;3.97;;
69310;SDS011;56430;48.154;16.458;2024-02-16T08:18:17;9.25;;;5.00;;
69310;SDS011;56430;48.154;16.458;2024-02-16T08:20:45;7.27;;;4.37;;
69310;SDS011;56430;48.154;16.458;2024-02-16T08:23:14;7.88;;;4.38;;
69310;SDS011;56430;48.154;16.458;2024-02-16T08:25:41;7.60;;;4.30;;
69310;SDS011;56430;48.154;16.458;2024-02-16T08:28:08;7.85;;;4.93;;
69310;SDS011;56430;48.154;16.458;2024-02-16T08:30:35;6.57;;;4.50;;
69310;SDS011;56430;48.154;16.458;2024-02-16T08:33:06;9.53;;;4.50;;
69310;SDS011;56430;48.154;16.458;2024-02-16T08:35:33;9.40;;;4.47;;
69310;SDS011;56430;48.154;16.458;2024-02-16T08:38:01;7.75;;;4.05;;
69310;SDS011;56430;48.154;16.458;2024-02-16T08:40:29;7.50;;;4.60;;
69310;SDS011;56430;48.154;16.458;2024-02-16T08:42:56;7.35;;;4.63;;
69310;SDS011;56430;48.154;16.458;2024-02-16T08:45:26;9.77;;;4.60;;
69310;SDS011;56430;48.154;16.458;2024-02-16T08:47:53;5.70;;;3.90;;
69310;SDS011;56430;48.154;16.458;2024-02-16T08:50:22;8.07;;;4.72;;
69310;SDS011;56430;48.154;16.458;2024-02-16T08:52:50;7.05;;;4.72;;
69310;SDS011;56430;48.154;16.458;2024-02-16T08:55:17;10.05;;;4.20;;
69310;SDS011;56430;48.154;16.458;2024-02-16T08:57:46;8.03;;;4.53;;
69310;SDS011;56430;48.154;16.458;2024-02-16T09:00:14;9.30;;;4.60;;
69310;SDS011;56430;48.154;16.458;2024-02-16T09:02:42;6.32;;;4.30;;
69310;SDS011;56430;48.154;16.458;2024-02-16T09:05:10;8.02;;;3.90;;
69310;SDS011;56430;48.154;16.458;2024-02-16T09:07:37;7.57;;;4.00;;
69310;SDS011;56430;48.154;16.458;2024-02-16T09:10:04;8.07;;;4.60;;
69310;SDS011;56430;48.154;16.458;2024-02-16T09:12:33;6.40;;;4.10;;
69310;SDS011;56430;48.154;16.458;2024-02-16T09:15:02;7.55;;;4.35;;
69310;SDS011;56430;48.154;16.458;2024-02-16T09:17:29;6.68;;;3.97;;
69310;SDS011;56430;48.154;16.458;2024-02-16T09:19:56;6.38;;;3.92;;
69310;SDS011;56430;48.154;16.458;2024-02-16T09:22:23;5.80;;;3.90;;
69310;SDS011;56430;48.154;16.458;2024-02-16T09:24:51;12.13;;;3.88;;
69310;SDS011;56430;48.154;16.458;2024-02-16T09:27:20;6.13;;;3.63;;
69310;SDS011;56430;48.154;16.458;2024-02-16T09:29:49;8.52;;;4.10;;
69310;SDS011;56430;48.154;16.458;2024-02-16T09:32:18;8.98;;;3.75;;
69310;SDS011;56430;48.154;16.458;2024-02-16T09:34:45;7.17;;;4.00;;
69310;SDS011;56430;48.154;16.458;2024-02-16T09:37:12;5.82;;;3.38;;
69310;SDS011;56430;48.154;16.458;2024-02-16T09:39:39;8.95;;;3.92;;
69310;SDS011;56430;48.154;16.458;2024-02-16T09:42:06;5.78;;;3.30;;
69310;SDS011;56430;48.154;16.458;2024-02-16T09:44:34;7.82;;;3.15;;
69310;SDS011;56430;48.154;16.458;2024-02-16T09:47:02;6.73;;;2.90;;
69310;SDS011;56430;48.154;16.458;2024-02-16T09:49:34;5.38;;;2.75;;
69310;SDS011;56430;48.154;16.458;2024-02-16T09:52:02;4.65;;;2.58;;
69310;SDS011;56430;48.154;16.458;2024-02-16T09:54:30;5.30;;;2.30;;
69310;SDS011;56430;48.154;16.458;2024-02-16T09:56:59;5.95;;;2.80;;
69310;SDS011;56430;48.154;16.458;2024-02-16T09:59:27;6.33;;;2.60;;
69310;SDS011;56430;48.154;16.458;2024-02-16T10:01:59;4.97;;;2.38;;
69310;SDS011;56430;48.154;16.458;2024-02-16T10:04:26;5.15;;;2.53;;
69310;SDS011;56430;48.154;16.458;2024-02-16T10:06:55;5.47;;;2.78;;
69310;SDS011;56430;48.154;16.458;2024-02-16T10:09:23;5.57;;;2.17;;
69310;SDS011;56430;48.154;16.458;2024-02-16T10:11:50;8.33;;;2.40;;
69310;SDS011;56430;48.154;16.458;2024-02-16T10:14:17;5.82;;;2.30;;
69310;SDS011;56430;48.154;16.458;2024-02-16T10:16:46;10.27;;;2.63;;
69310;SDS011;56430;48.154;16.458;2024-02-16T10:19:14;5.22;;;2.17;;
69310;SDS011;56430;48.154;16.458;2024-02-16T10:21:44;4.40;;;2.15;;
69310;SDS011;56430;48.154;16.458;2024-02-16T10:24:12;6.87;;;2.50;;
69310;SDS011;56430;48.154;16.458;2024-02-16T10:26:40;5.32;;;2.15;;
69310;SDS011;56430;48.154;16.458;2024-02-16T10:29:09;5.68;;;2.08;;
69310;SDS011;56430;48.154;16.458;2024-02-16T10:31:37;6.20;;;2.42;;
69310;SDS011;56430;48.154;16.458;2024-02-16T10:34:06;4.05;;;1.80;;
69310;SDS011;56430;48.154;16.458;2024-02-16T10:36:35;4.77;;;1.57;;
69310;SDS011;56430;48.154;16.458;2024-02-16T10:39:03;4.30;;;2.40;;
69310;SDS011;56430;48.154;16.458;2024-02-16T10:41:34;5.93;;;2.00;;
69310;SDS011;56430;48.154;16.458;2024-02-16T10:44:02;4.07;;;1.67;;
69310;SDS011;56430;48.154;16.458;2024-02-16T10:46:30;4.32;;;1.75;;
69310;SDS011;56430;48.154;16.458;2024-02-16T10:48:58;4.17;;;1.53;;
69310;SDS011;56430;48.154;16.458;2024-02-16T10:51:28;5.35;;;1.77;;
69310;SDS011;56430;48.154;16.458;2024-02-16T10:53:57;3.63;;;1.60;;
69310;SDS011;56430;48.154;16.458;2024-02-16T10:56:27;5.10;;;1.88;;
69310;SDS011;56430;48.154;16.458;2024-02-16T10:58:56;5.10;;;2.35;;
69310;SDS011;56430;48.154;16.458;2024-02-16T11:01:28;3.27;;;1.40;;
69310;SDS011;56430;48.154;16.458;2024-02-16T11:04:02;5.32;;;1.50;;
69310;SDS011;56430;48.154;16.458;2024-02-16T11:06:44;5.65;;;1.90;;
69310;SDS011;56430;48.154;16.458;2024-02-16T11:09:22;4.53;;;1.40;;
69310;SDS011;56430;48.154;16.458;2024-02-16T11:11:53;3.58;;;1.40;;
69310;SDS011;56430;48.154;16.458;2024-02-16T11:14:22;4.83;;;1.60;;
69310;SDS011;56430;48.154;16.458;2024-02-16T11:16:53;4.47;;;1.40;;
69310;SDS011;56430;48.154;16.458;2024-02-16T11:19:22;3.83;;;1.00;;
69310;SDS011;56430;48.154;16.458;2024-02-16T11:21:55;7.05;;;0.90;;
69310;SDS011;56430;48.154;16.458;2024-02-16T11:24:30;2.67;;;0.90;;
69310;SDS011;56430;48.154;16.458;2024-02-16T11:27:00;6.30;;;1.30;;
69310;SDS011;56430;48.154;16.458;2024-02-16T11:29:31;3.70;;;1.10;;
69310;SDS011;56430;48.154;16.458;2024-02-16T11:31:59;4.18;;;1.10;;
69310;SDS011;56430;48.154;16.458;2024-02-16T11:34:27;4.72;;;1.08;;
69310;SDS011;56430;48.154;16.458;2024-02-16T11:36:54;3.20;;;1.10;;
69310;SDS011;56430;48.154;16.458;2024-02-16T11:39:22;2.97;;;1.10;;
69310;SDS011;56430;48.154;16.458;2024-02-16T11:41:58;2.83;;;0.80;;
69310;SDS011;56430;48.154;16.458;2024-02-16T11:44:27;5.13;;;0.82;;
69310;SDS011;56430;48.154;16.458;2024-02-16T11:46:56;2.40;;;0.85;;
69310;SDS011;56430;48.154;16.458;2024-02-16T11:49:23;2.67;;;1.10;;
69310;SDS011;56430;48.154;16.458;2024-02-16T11:51:50;3.73;;;1.30;;
69310;SDS011;56430;48.154;16.458;2024-02-16T11:54:17;3.67;;;1.23;;
69310;SDS011;56430;48.154;16.458;2024-02-16T11:56:45;2.90;;;1.10;;
69310;SDS011;56430;48.154;16.458;2024-02-16T11:59:13;3.42;;;0.80;;
69310;SDS011;56430;48.154;16.458;2024-02-16T12:01:50;2.97;;;0.93;;
69310;SDS011;56430;48.154;16.458;2024-02-16T12:04:22;3.87;;;0.40;;
69310;SDS011;56430;48.154;16.458;2024-02-16T12:06:51;2.10;;;0.47;;
69310;SDS011;56430;48.154;16.458;2024-02-16T12:09:19;2.90;;;0.65;;
69310;SDS011;56430;48.154;16.458;2024-02-16T12:11:48;2.75;;;0.65;;
69310;SDS011;56430;48.154;16.458;2024-02-16T12:14:15;4.75;;;0.80;;
69310;SDS011;56430;48.154;16.458;2024-02-16T12:16:46;3.73;;;0.80;;
69310;SDS011;56430;48.154;16.458;2024-02-16T12:19:15;2.45;;;0.57;;
69310;SDS011;56430;48.154;16.458;2024-02-16T12:21:43;2.25;;;0.70;;
69310;SDS011;56430;48.154;16.458;2024-02-16T12:24:10;3.75;;;1.00;;
69310;SDS011;56430;48.154;16.458;2024-02-16T12:26:39;3.17;;;1.10;;
69310;SDS011;56430;48.154;16.458;2024-02-16T12:29:06;3.57;;;0.70;;
69310;SDS011;56430;48.154;16.458;2024-02-16T12:31:38;4.13;;;0.90;;
69310;SDS011;56430;48.154;16.458;2024-02-16T12:34:06;3.65;;;1.10;;
69310;SDS011;56430;48.154;16.458;2024-02-16T12:36:33;4.45;;;1.15;;
69310;SDS011;56430;48.154;16.458;2024-02-16T12:39:02;3.05;;;0.93;;
69310;SDS011;56430;48.154;16.458;2024-02-16T12:41:29;3.00;;;1.10;;
69310;SDS011;56430;48.154;16.458;2024-02-16T12:43:57;3.13;;;0.90;;
69310;SDS011;56430;48.154;16.458;2024-02-16T12:46:24;2.92;;;1.20;;
69310;SDS011;56430;48.154;16.458;2024-02-16T12:49:03;8.10;;;1.15;;
69310;SDS011;56430;48.154;16.458;2024-02-16T12:51:30;5.63;;;1.02;;
69310;SDS011;56430;48.154;16.458;2024-02-16T12:53:57;3.60;;;1.07;;
69310;SDS011;56430;48.154;16.458;2024-02-16T12:56:27;2.88;;;1.10;;
69310;SDS011;56430;48.154;16.458;2024-02-16T12:58:54;3.17;;;1.08;;
69310;SDS011;56430;48.154;16.458;2024-02-16T13:01:22;4.40;;;1.33;;
69310;SDS011;56430;48.154;16.458;2024-02-16T13:03:50;4.32;;;1.05;;
69310;SDS011;56430;48.154;16.458;2024-02-16T13:06:17;2.93;;;1.23;;
69310;SDS011;56430;48.154;16.458;2024-02-16T13:08:44;3.45;;;1.20;;
69310;SDS011;56430;48.154;16.458;2024-02-16T13:11:11;3.78;;;1.23;;
69310;SDS011;56430;48.154;16.458;2024-02-16T13:13:40;4.18;;;2.08;;
69310;SDS011;56430;48.154;16.458;2024-02-16T13:16:08;4.15;;;1.30;;
69310;SDS011;56430;48.154;16.458;2024-02-16T13:18:38;3.27;;;1.30;;
69310;SDS011;56430;48.154;16.458;2024-02-16T13:21:06;3.38;;;0.93;;
69310;SDS011;56430;48.154;16.458;2024-02-16T13:23:33;5.78;;;1.48;;
69310;SDS011;56430;48.154;16.458;2024-02-16T13:26:01;4.45;;;1.70;;
69310;SDS011;56430;48.154;16.458;2024-02-16T13:28:29;3.05;;;1.15;;
69310;SDS011;56430;48.154;16.458;2024-02-16T13:30:58;3.50;;;1.20;;
69310;SDS011;56430;48.154;16.458;2024-02-16T13:33:25;3.90;;;1.17;;
69310;SDS011;56430;48.154;16.458;2024-02-16T13:35:52;4.75;;;1.60;;
69310;SDS011;56430;48.154;16.458;2024-02-16T13:38:20;3.95;;;1.30;;
69310;SDS011;56430;48.154;16.458;2024-02-16T13:40:47;4.80;;;1.05;;
69310;SDS011;56430;48.154;16.458;2024-02-16T13:43:15;4.60;;;1.37;;
69310;SDS011;56430;48.154;16.458;2024-02-16T13:45:47;3.88;;;1.00;;
69310;SDS011;56430;48.154;16.458;2024-02-16T13:48:17;3.72;;;1.35;;
69310;SDS011;56430;48.154;16.458;2024-02-16T13:50:45;2.85;;;1.02;;
69310;SDS011;56430;48.154;16.458;2024-02-16T13:53:13;3.83;;;1.27;;
69310;SDS011;56430;48.154;16.458;2024-02-16T13:55:41;4.57;;;1.10;;
69310;SDS011;56430;48.154;16.458;2024-02-16T13:58:09;3.72;;;1.50;;
69310;SDS011;56430;48.154;16.458;2024-02-16T14:00:36;3.88;;;1.33;;
69310;SDS011;56430;48.154;16.458;2024-02-16T14:03:04;4.22;;;1.25;;
69310;SDS011;56430;48.154;16.458;2024-02-16T14:05:32;3.25;;;1.42;;
69310;SDS011;56430;48.154;16.458;2024-02-16T14:07:59;3.57;;;1.10;;
69310;SDS011;56430;48.154;16.458;2024-02-16T14:10:27;6.03;;;1.58;;
69310;SDS011;56430;48.154;16.458;2024-02-16T14:12:54;4.38;;;1.45;;
69310;SDS011;56430;48.154;16.458;2024-02-16T14:15:21;4.63;;;1.55;;
69310;SDS011;56430;48.154;16.458;2024-02-16T14:17:48;4.10;;;2.13;;
69310;SDS011;56430;48.154;16.458;2024-02-16T14:20:15;5.23;;;1.50;;
69310;SDS011;56430;48.154;16.458;2024-02-16T14:22:44;3.33;;;1.10;;
69310;SDS011;56430;48.154;16.458;2024-02-16T14:25:13;4.80;;;1.27;;
69310;SDS011;56430;48.154;16.458;2024-02-16T14:27:40;6.53;;;1.60;;
69310;SDS011;56430;48.154;16.458;2024-02-16T14:30:08;3.33;;;1.33;;
69310;SDS011;56430;48.154;16.458;2024-02-16T14:32:36;3.60;;;1.10;;